RJTJ(METAR)
01/24 01:00
METAR RJTJ 231600Z 30008KT 9999 FEW030 M01/M14 Q1016 RMK 1CU030
A3001=
戻る
トップページへ戻る
IMOC Co,.Ltd.